Observation data for Slaton on 05/26/2019      Previous  Date  Next       Current Mesonet Observations  Soil Data  Daily Summary Page  Observations in Plain Language
KSLS 260500Z 15007KT 20/18 A2996 RMK A01 T02020179  RH  089%=      5-min Rain = 0
KSLS 260505Z 15006KT 20/18 A2996 RMK A01 T01990178  RH  090%=      5-min Rain = 0
KSLS 260510Z 14005KT 20/18 A2996 RMK A01 T01960177  RH  091%=      5-min Rain = 0
KSLS 260515Z 13004KT 20/18 A2996 RMK A01 T01950176  RH  091%=      5-min Rain = 0
KSLS 260520Z 11004KT 19/18 A2996 RMK A01 T01940176  RH  091%=      5-min Rain = 0
KSLS 260525Z 11005KT 19/18 A2996 RMK A01 T01930177  RH  092%=      5-min Rain = 0
KSLS 260530Z 12005KT 19/18 A2996 RMK A01 T01940177  RH  092%=      5-min Rain = 0
KSLS 260535Z 12006KT 19/18 A2996 RMK A01 T01930176  RH  092%=      5-min Rain = 0
KSLS 260540Z 13006KT 19/17 A2996 RMK A01 T01920174  RH  092%=      5-min Rain = 0
KSLS 260545Z 14006KT 19/17 A2996 RMK A01 T01910174  RH  092%=      5-min Rain = 0
KSLS 260550Z 14006KT 19/17 A2996 RMK A01 T01890173  RH  092%=      5-min Rain = 0
KSLS 260555Z 14007KT 19/17 A2996 RMK A01 T01900174  RH  093%=      5-min Rain = 0
KSLS 260600Z 14007KT 19/17 A2996 RMK A01 T01900174  RH  093%=      5-min Rain = 0
KSLS 260605Z 14007KT 19/17 A2996 RMK A01 T01900174  RH  092%=      5-min Rain = 0
KSLS 260610Z 14006KT 19/17 A2996 RMK A01 T01900174  RH  092%=      5-min Rain = 0
KSLS 260615Z 14005KT 19/17 A2996 RMK A01 T01900173  RH  092%=      5-min Rain = 0
KSLS 260620Z 12004KT 19/17 A2997 RMK A01 T01900174  RH  093%=      5-min Rain = 0
KSLS 260625Z 11004KT 19/17 A2997 RMK A01 T01900174  RH  093%=      5-min Rain = 0
KSLS 260630Z 10004KT 19/17 A2997 RMK A01 T01890174  RH  093%=      5-min Rain = 0
KSLS 260635Z 11004KT 19/17 A2997 RMK A01 T01890173  RH  093%=      5-min Rain = 0
KSLS 260640Z 12005KT 19/17 A2997 RMK A01 T01880173  RH  093%=      5-min Rain = 0
KSLS 260645Z 12005KT 19/17 A2997 RMK A01 T01870171  RH  093%=      5-min Rain = 0
KSLS 260650Z 13006KT 18/17 A2996 RMK A01 T01840169  RH  093%=      5-min Rain = 0
KSLS 260655Z 14006KT 18/17 A2996 RMK A01 T01820168  RH  094%=      5-min Rain = 0
KSLS 260700Z 14006KT 18/17 A2996 RMK A01 T01810168  RH  094%=      5-min Rain = 0
KSLS 260705Z 13006KT 18/17 A2996 RMK A01 T01810168  RH  095%=      5-min Rain = 0
KSLS 260710Z 13005KT 18/17 A2996 RMK A01 T01810169  RH  095%=      5-min Rain = 0
KSLS 260715Z 12006KT 18/17 A2997 RMK A01 T01820170  RH  095%=      5-min Rain = 0
KSLS 260720Z 11006KT 19/17 A2997 RMK A01 T01850172  RH  095%=      5-min Rain = 0
KSLS 260725Z 12005KT 19/17 A2997 RMK A01 T01850171  RH  094%=      5-min Rain = 0
KSLS 260730Z 12006KT 19/17 A2997 RMK A01 T01850172  RH  094%=      5-min Rain = 0
KSLS 260735Z 12006KT 19/17 A2997 RMK A01 T01850172  RH  094%=      5-min Rain = 0
KSLS 260740Z 12006KT 19/17 A2996 RMK A01 T01850172  RH  094%=      5-min Rain = 0
KSLS 260745Z 12007KT 18/17 A2996 RMK A01 T01840172  RH  095%=      5-min Rain = 0
KSLS 260750Z 12007KT 19/17 A2996 RMK A01 T01850172  RH  095%=      5-min Rain = 0
KSLS 260755Z 12007KT 19/17 A2996 RMK A01 T01850172  RH  094%=      5-min Rain = 0
KSLS 260800Z 12007KT 19/17 A2996 RMK A01 T01860173  RH  094%=      5-min Rain = 0
KSLS 260805Z 12006KT 19/17 A2996 RMK A01 T01850172  RH  095%=      5-min Rain = 0
KSLS 260810Z 12006KT 19/17 A2996 RMK A01 T01850173  RH  095%=      5-min Rain = 0
KSLS 260815Z 12006KT 18/17 A2996 RMK A01 T01840172  RH  095%=      5-min Rain = 0
KSLS 260820Z 12007KT 19/17 A2996 RMK A01 T01850172  RH  094%=      5-min Rain = 0
KSLS 260825Z 12007KT 19/17 A2996 RMK A01 T01860172  RH  094%=      5-min Rain = 0
KSLS 260830Z 11006KT 19/17 A2996 RMK A01 T01860172  RH  094%=      5-min Rain = 0
KSLS 260835Z 11006KT 19/17 A2996 RMK A01 T01850172  RH  094%=      5-min Rain = 0
KSLS 260840Z 11006KT 18/17 A2996 RMK A01 T01840171  RH  094%=      5-min Rain = 0
KSLS 260845Z 11006KT 18/17 A2996 RMK A01 T01820170  RH  095%=      5-min Rain = 0
KSLS 260850Z 12007KT 18/17 A2996 RMK A01 T01820170  RH  095%=      5-min Rain = 0
KSLS 260855Z 12007KT 18/17 A2996 RMK A01 T01820170  RH  095%=      5-min Rain = 0
KSLS 260900Z 13007KT 18/17 A2996 RMK A01 T01820170  RH  095%=      5-min Rain = 0
KSLS 260905Z 13007KT 18/17 A2996 RMK A01 T01810169  RH  095%=      5-min Rain = 0
KSLS 260910Z 13006KT 18/17 A2997 RMK A01 T01800169  RH  095%=      5-min Rain = 0
KSLS 260915Z 12006KT 18/17 A2997 RMK A01 T01790169  RH  096%=      5-min Rain = 0
KSLS 260920Z 12006KT 18/17 A2997 RMK A01 T01800170  RH  096%=      5-min Rain = 0
KSLS 260925Z 12007KT 18/17 A2997 RMK A01 T01810171  RH  096%=      5-min Rain = 0
KSLS 260930Z 12006KT 18/17 A2997 RMK A01 T01820172  RH  096%=      5-min Rain = 0
KSLS 260935Z 13007KT 18/17 A2997 RMK A01 T01830172  RH  096%=      5-min Rain = 0
KSLS 260940Z 13008KT 18/17 A2997 RMK A01 T01830173  RH  096%=      5-min Rain = 0
KSLS 260945Z 14009KT 19/17 A2997 RMK A01 T01850174  RH  096%=      5-min Rain = 0
KSLS 260950Z 14008KT 19/18 A2997 RMK A01 T01860175  RH  095%=      5-min Rain = 0
KSLS 260955Z 13008KT 19/18 A2997 RMK A01 T01880175  RH  095%=      5-min Rain = 0
KSLS 261000Z 14007KT 19/18 A2997 RMK A01 T01880176  RH  095%=      5-min Rain = 0
KSLS 261005Z 13006KT 19/18 A2997 RMK A01 T01890176  RH  095%=      5-min Rain = 0
KSLS 261010Z 13006KT 19/18 A2997 RMK A01 T01890176  RH  095%=      5-min Rain = 0
KSLS 261015Z 13007KT 19/18 A2997 RMK A01 T01890176  RH  095%=      5-min Rain = 0
KSLS 261020Z 13006KT 19/18 A2997 RMK A01 T01900177  RH  095%=      5-min Rain = 0
KSLS 261025Z 13007KT 19/18 A2997 RMK A01 T01900177  RH  095%=      5-min Rain = 0
KSLS 261030Z 13006KT 19/18 A2997 RMK A01 T01890177  RH  095%=      5-min Rain = 0
KSLS 261035Z 13007KT 19/18 A2997 RMK A01 T01890177  RH  095%=      5-min Rain = 0
KSLS 261040Z 14008KT 19/18 A2997 RMK A01 T01900178  RH  095%=      5-min Rain = 0
KSLS 261045Z 14008KT 19/18 A2997 RMK A01 T01910179  RH  095%=      5-min Rain = 0
KSLS 261050Z 14008KT 19/18 A2997 RMK A01 T01910179  RH  095%=      5-min Rain = 0
KSLS 261055Z 13008KT 19/18 A2997 RMK A01 T01910179  RH  095%=      5-min Rain = 0
KSLS 261100Z 13008KT 19/18 A2998 RMK A01 T01910179  RH  095%=      5-min Rain = 0
KSLS 261105Z 14008KT 19/18 A2998 RMK A01 T01910179  RH  095%=      5-min Rain = 0
KSLS 261110Z 14007KT 19/18 A2998 RMK A01 T01910180  RH  096%=      5-min Rain = 0
KSLS 261115Z 14007KT 19/18 A2998 RMK A01 T01920182  RH  096%=      5-min Rain = 0
KSLS 261120Z 15009KT 20/18 A2999 RMK A01 T01950184  RH  096%=      5-min Rain = 0
KSLS 261125Z 15010KT 20/19 A2999 RMK A01 T01960185  RH  095%=      5-min Rain = 0
KSLS 261130Z 15010KT 20/19 A2999 RMK A01 T01980185  RH  095%=      5-min Rain = 0
KSLS 261135Z 15011KT 20/19 A2999 RMK A01 T01990185  RH  094%=      5-min Rain = 0
KSLS 261140Z 16011KT 20/19 A2999 RMK A01 T02000185  RH  093%=      5-min Rain = 0
KSLS 261145Z 15011KT 20/19 A2999 RMK A01 T02000185  RH  093%=      5-min Rain = 0
KSLS 261150Z 16011KT 20/19 A2999 RMK A01 T02000185  RH  093%=      5-min Rain = 0
KSLS 261155Z 16012KT 20/18 A2999 RMK A01 T01990184  RH  094%=      5-min Rain = 0
KSLS 261200Z 15011KT 20/19 A30 RMK A01 T01990185  RH  094%=      5-min Rain = 0
KSLS 261205Z 16012KT 20/19 A30 RMK A01 T01990185  RH  094%=      5-min Rain = 0
KSLS 261210Z 15011KT 20/19 A30 RMK A01 T01990185  RH  094%=      5-min Rain = 0
KSLS 261215Z 15012KT 20/18 A30 RMK A01 T01980184  RH  094%=      5-min Rain = 0
KSLS 261220Z 15011KT 20/19 A30 RMK A01 T01980185  RH  095%=      5-min Rain = 0
KSLS 261225Z 15012KT 20/19 A30 RMK A01 T01970185  RH  095%=      5-min Rain = 0
KSLS 261230Z 15012KT 20/19 A30 RMK A01 T01970185  RH  095%=      5-min Rain = 0
KSLS 261235Z 15011KT 20/19 A30 RMK A01 T01970185  RH  095%=      5-min Rain = 0
KSLS 261240Z 15012KT 20/19 A30 RMK A01 T01970186  RH  095%=      5-min Rain = 0
KSLS 261245Z 15012KT 20/19 A30 RMK A01 T01980186  RH  095%=      5-min Rain = 0
KSLS 261250Z 15011KT 20/19 A30 RMK A01 T01980186  RH  095%=      5-min Rain = 0
KSLS 261255Z 15011KT 20/19 A30 RMK A01 T01990187  RH  095%=      5-min Rain = 0
KSLS 261300Z 15012KT 20/19 A30 RMK A01 T01990186  RH  095%=      5-min Rain = 0
KSLS 261305Z 15012G17KT 20/19 A30 RMK A01 T01980186  RH  095%=      5-min Rain = 0
KSLS 261310Z 15012KT 20/19 A30 RMK A01 T01980187  RH  096%=      5-min Rain = 0
KSLS 261315Z 15012KT 20/19 A30 RMK A01 T01980187  RH  096%=      5-min Rain = 0
KSLS 261320Z 15011KT 20/19 A30 RMK A01 T01980187  RH  096%=      5-min Rain = 0
KSLS 261325Z 15012KT 20/19 A30 RMK A01 T01990188  RH  096%=      5-min Rain = 0
KSLS 261330Z 15012KT 20/19 A30 RMK A01 T01990188  RH  095%=      5-min Rain = 0
KSLS 261335Z 15012KT 20/19 A30 RMK A01 T01990188  RH  096%=      5-min Rain = 0
KSLS 261340Z 15012KT 20/19 A30 RMK A01 T01990188  RH  096%=      5-min Rain = 0
KSLS 261345Z 14011KT 20/19 A30 RMK A01 T01990188  RH  095%=      5-min Rain = 0
KSLS 261350Z 15012KT 20/19 A30 RMK A01 T02000188  RH  095%=      5-min Rain = 0
KSLS 261355Z 14012KT 20/19 A30 RMK A01 T02000188  RH  095%=      5-min Rain = 0
KSLS 261400Z 15011KT 20/19 A3001 RMK A01 T02000188  RH  095%=      5-min Rain = 0
KSLS 261405Z 15012KT 20/19 A3001 RMK A01 T02000188  RH  095%=      5-min Rain = 0
KSLS 261410Z 15011KT 20/19 A3001 RMK A01 T02010188  RH  095%=      5-min Rain = 0
KSLS 261415Z 15012KT 20/19 A3001 RMK A01 T02010188  RH  095%=      5-min Rain = 0
KSLS 261420Z 15012KT 20/19 A3001 RMK A01 T02010188  RH  094%=      5-min Rain = 0
KSLS 261425Z 15012KT 20/19 A3002 RMK A01 T02020187  RH  094%=      5-min Rain = 0
KSLS 261430Z 14011KT 20/19 A3002 RMK A01 T02020187  RH  094%=      5-min Rain = 0
KSLS 261435Z 15012KT 20/19 A3002 RMK A01 T02020187  RH  094%=      5-min Rain = 0
KSLS 261440Z 14013KT 20/19 A3002 RMK A01 T02020186  RH  093%=      5-min Rain = 0
KSLS 261445Z 15012KT 20/19 A3002 RMK A01 T02020186  RH  093%=      5-min Rain = 0
KSLS 261450Z 14013KT 20/19 A3002 RMK A01 T02030186  RH  093%=      5-min Rain = 0
KSLS 261455Z 14012KT 20/19 A3002 RMK A01 T02020186  RH  093%=      5-min Rain = 0
KSLS 261500Z 15012G17KT 20/19 A3002 RMK A01 T02020185  RH  092%=      5-min Rain = 0
KSLS 261505Z 14012KT 20/19 A3002 RMK A01 T02030186  RH  092%=      5-min Rain = 0
KSLS 261510Z 14013KT 20/19 A3002 RMK A01 T02040186  RH  091%=      5-min Rain = 0
KSLS 261515Z 14013KT 20/18 A3002 RMK A01 T02030184  RH  091%=      5-min Rain = 0
KSLS 261520Z 14014KT 20/18 A3002 RMK A01 T02040184  RH  091%=      5-min Rain = 0
KSLS 261525Z 14013KT 21/19 A3002 RMK A01 T02050185  RH  091%=      5-min Rain = 0
KSLS 261530Z 15012KT 21/19 A3002 RMK A01 T02060186  RH  090%=      5-min Rain = 0
KSLS 261535Z 15013KT 21/19 A3002 RMK A01 T02060185  RH  090%=      5-min Rain = 0
KSLS 261540Z 15012KT 21/18 A3002 RMK A01 T02050184  RH  090%=      5-min Rain = 0
KSLS 261545Z 14012KT 21/19 A3002 RMK A01 T02060185  RH  090%=      5-min Rain = 0
KSLS 261550Z 15013KT 21/18 A3002 RMK A01 T02060184  RH  090%=      5-min Rain = 0
KSLS 261555Z 15013KT 21/19 A3002 RMK A01 T02080185  RH  089%=      5-min Rain = 0
KSLS 261600Z 15014KT 21/18 A3001 RMK A01 T02090184  RH  088%=      5-min Rain = 0
KSLS 261605Z 15015KT 21/18 A3001 RMK A01 T02100184  RH  087%=      5-min Rain = 0
KSLS 261610Z 14014KT 21/18 A3001 RMK A01 T02100184  RH  087%=      5-min Rain = 0
KSLS 261615Z 14014KT 21/18 A3001 RMK A01 T02100183  RH  087%=      5-min Rain = 0
KSLS 261620Z 15015KT 21/18 A3001 RMK A01 T02100183  RH  087%=      5-min Rain = 0
KSLS 261625Z 14016KT 21/18 A3001 RMK A01 T02110183  RH  086%=      5-min Rain = 0
KSLS 261630Z 14015KT 21/18 A3001 RMK A01 T02110183  RH  086%=      5-min Rain = 0
KSLS 261635Z 15016KT 21/18 A3001 RMK A01 T02130183  RH  085%=      5-min Rain = 0
KSLS 261640Z 15017KT 21/18 A3001 RMK A01 T02130182  RH  085%=      5-min Rain = 0
KSLS 261645Z 15015KT 21/18 A3001 RMK A01 T02130182  RH  085%=      5-min Rain = 0
KSLS 261650Z 15016KT 21/18 A3001 RMK A01 T02130183  RH  085%=      5-min Rain = 0
KSLS 261655Z 16015G20KT 21/18 A3002 RMK A01 T02140183  RH  085%=      5-min Rain = 0
KSLS 261700Z 16015G20KT 22/18 A3002 RMK A01 T02150183  RH  084%=      5-min Rain = 0
KSLS 261705Z 15016KT 22/18 A3002 RMK A01 T02160183  RH  084%=      5-min Rain = 0
KSLS 261710Z 16015KT 22/18 A3002 RMK A01 T02180184  RH  083%=      5-min Rain = 0
KSLS 261715Z 16017KT 22/18 A3002 RMK A01 T02180183  RH  083%=      5-min Rain = 0
KSLS 261720Z 16015KT 22/18 A3001 RMK A01 T02180184  RH  083%=      5-min Rain = 0
KSLS 261725Z 16016KT 22/18 A3001 RMK A01 T02180183  RH  083%=      5-min Rain = 0
KSLS 261730Z 16015KT 22/18 A3001 RMK A01 T02190184  RH  083%=      5-min Rain = 0
KSLS 261735Z 15014KT 22/19 A3001 RMK A01 T02220186  RH  082%=      5-min Rain = 0
KSLS 261740Z 15015G20KT 22/19 A3001 RMK A01 T02240186  RH  081%=      5-min Rain = 0
KSLS 261745Z 15015KT 22/19 A3001 RMK A01 T02240186  RH  081%=      5-min Rain = 0
KSLS 261750Z 16016KT 22/19 A3001 RMK A01 T02240185  RH  081%=      5-min Rain = 0
KSLS 261755Z 16014G20KT 23/19 A3001 RMK A01 T02260186  RH  080%=      5-min Rain = 0
KSLS 261800Z 17017G22KT 23/18 A3001 RMK A01 T02280184  RH  078%=      5-min Rain = 0
KSLS 261805Z 17019KT 23/18 A3001 RMK A01 T02280182  RH  077%=      5-min Rain = 0
KSLS 261810Z 17018G23KT 23/18 A3001 RMK A01 T02260181  RH  078%=      5-min Rain = 0
KSLS 261815Z 17020G25KT 23/18 A30 RMK A01 T02280182  RH  077%=      5-min Rain = 0
KSLS 261820Z 17018G24KT 23/18 A30 RMK A01 T02270181  RH  077%=      5-min Rain = 0
KSLS 261825Z 16017G22KT 23/18 A30 RMK A01 T02280183  RH  078%=      5-min Rain = 0
KSLS 261830Z 16017G22KT 23/18 A30 RMK A01 T02260183  RH  079%=      5-min Rain = 0
KSLS 261835Z 16017G23KT 22/18 A3001 RMK A01 T02240182  RH  079%=      5-min Rain = 0
KSLS 261840Z 16017KT 22/18 A3001 RMK A01 T02240183  RH  079%=      5-min Rain = 0
KSLS 261845Z 17018KT 23/18 A3001 RMK A01 T02250183  RH  079%=      5-min Rain = 0
KSLS 261850Z 17019KT 23/18 A3001 RMK A01 T02250181  RH  078%=      5-min Rain = 0
KSLS 261855Z 18019G24KT 22/18 A3001 RMK A01 T02240181  RH  079%=      5-min Rain = 0
KSLS 261900Z 18017G22KT 23/18 A3001 RMK A01 T02250182  RH  079%=      5-min Rain = 0
KSLS 261905Z 17017G23KT 22/18 A3001 RMK A01 T02240182  RH  079%=      5-min Rain = 0
KSLS 261910Z 18015G20KT 22/18 A3002 RMK A01 T02240182  RH  079%=      5-min Rain = 0
KSLS 261915Z 18015KT 23/18 A3002 RMK A01 T02250183  RH  079%=      5-min Rain = 0
KSLS 261920Z 18015G20KT 22/18 A3002 RMK A01 T02240183  RH  080%=      5-min Rain = 0
KSLS 261925Z 18015KT 22/18 A3002 RMK A01 T02240183  RH  080%=      5-min Rain = 0
KSLS 261930Z 18016G21KT 23/18 A3002 RMK A01 T02250184  RH  080%=      5-min Rain = 0
KSLS 261935Z 18016KT 23/18 A3002 RMK A01 T02260184  RH  079%=      5-min Rain = 0
KSLS 261940Z 18016KT 23/19 A3002 RMK A01 T02270185  RH  079%=      5-min Rain = 0
KSLS 261945Z 18016KT 23/18 A3002 RMK A01 T02270184  RH  079%=      5-min Rain = 0
KSLS 261950Z 18015G20KT 23/19 A3002 RMK A01 T02280186  RH  079%=      5-min Rain = 0
KSLS 261955Z 17013KT 23/19 A3001 RMK A01 T02320188  RH  078%=      5-min Rain = 0
KSLS 262000Z 17015KT 24/19 A30 RMK A01 T02350187  RH  076%=      5-min Rain = 0
KSLS 262005Z 17015KT 24/19 A30 RMK A01 T02380188  RH  076%=      5-min Rain = 0
KSLS 262010Z 17015KT 24/19 A2999 RMK A01 T02390188  RH  075%=      5-min Rain = 0
KSLS 262015Z 18015G21KT 24/19 A30 RMK A01 T02390188  RH  075%=      5-min Rain = 0
KSLS 262020Z 17014G19KT 24/19 A30 RMK A01 T02420189  RH  074%=      5-min Rain = 0
KSLS 262025Z 17014KT 24/19 A2999 RMK A01 T02430189  RH  074%=      5-min Rain = 0
KSLS 262030Z 16016G21KT 24/19 A2999 RMK A01 T02430187  RH  073%=      5-min Rain = 0
KSLS 262035Z 17016KT 24/19 A2999 RMK A01 T02430188  RH  073%=      5-min Rain = 0
KSLS 262040Z 17015KT 24/19 A2999 RMK A01 T02440189  RH  073%=      5-min Rain = 0
KSLS 262045Z 16016G21KT 24/19 A2999 RMK A01 T02420189  RH  074%=      5-min Rain = 0
KSLS 262050Z 16015G20KT 24/19 A2999 RMK A01 T02400189  RH  075%=      5-min Rain = 0
KSLS 262055Z 16014G20KT 24/19 A2998 RMK A01 T02420191  RH  075%=      5-min Rain = 0
KSLS 262100Z 15015KT 24/19 A2998 RMK A01 T02420191  RH  075%=      5-min Rain = 0
KSLS 262105Z 15016G21KT 24/19 A2998 RMK A01 T02420190  RH  074%=      5-min Rain = 0
KSLS 262110Z 15018KT 24/19 A2997 RMK A01 T02420188  RH  074%=      5-min Rain = 0
KSLS 262115Z 16016G21KT 24/19 A2997 RMK A01 T02420189  RH  074%=      5-min Rain = 0
KSLS 262120Z 16017KT 24/19 A2997 RMK A01 T02410188  RH  074%=      5-min Rain = 0
KSLS 262125Z 16016KT 24/19 A2997 RMK A01 T02410189  RH  075%=      5-min Rain = 0
KSLS 262130Z 16016G21KT 24/19 A2997 RMK A01 T02410190  RH  075%=      5-min Rain = 0
KSLS 262135Z 15019G24KT 24/19 A2995 RMK A01 T02420190  RH  075%=      5-min Rain = 0
KSLS 262140Z 15020KT 24/19 A2995 RMK A01 T02420189  RH  074%=      5-min Rain = 0
KSLS 262145Z 15021KT 24/19 A2994 RMK A01 T02430189  RH  074%=      5-min Rain = 0
KSLS 262150Z 15020G26KT 24/19 A2994 RMK A01 T02440190  RH  074%=      5-min Rain = 0
KSLS 262155Z 14021G27KT 24/19 A2994 RMK A01 T02420189  RH  074%=      5-min Rain = 0
KSLS 262200Z 14021G26KT 24/19 A2992 RMK A01 T02410189  RH  075%=      5-min Rain = 0
KSLS 262205Z 13020G26KT 24/19 A2991 RMK A01 T02410189  RH  075%=      5-min Rain = 0
KSLS 262210Z 13017G23KT 24/19 A2991 RMK A01 T02400190  RH  076%=      5-min Rain = 0
KSLS 262215Z 13015G20KT 24/19 A2992 RMK A01 T02380192  RH  077%=      5-min Rain = 0
KSLS 262220Z 15014G19KT 24/19 A2993 RMK A01 T02390193  RH  077%=      5-min Rain = 0
KSLS 262225Z 14016KT 24/19 A2993 RMK A01 T02400193  RH  077%=      5-min Rain = 0
KSLS 262230Z 15015G20KT 24/19 A2994 RMK A01 T02380193  RH  078%=      5-min Rain = 0
KSLS 262235Z 15013KT 24/19 A2994 RMK A01 T02380193  RH  078%=      5-min Rain = 0
KSLS 262240Z 15013G18KT 24/19 A2993 RMK A01 T02390192  RH  077%=      5-min Rain = 0
KSLS 262245Z 14014KT 24/19 A2993 RMK A01 T02400193  RH  077%=      5-min Rain = 0
KSLS 262250Z 15018KT 24/19 A2993 RMK A01 T02420188  RH  074%=      5-min Rain = 0
KSLS 262255Z 15019G24KT 24/19 A2991 RMK A01 T02430186  RH  072%=      5-min Rain = 0
KSLS 262300Z 14019KT 25/19 A299 RMK A01 T02450187  RH  072%=      5-min Rain = 0
KSLS 262305Z 14018KT 24/19 A2989 RMK A01 T02440187  RH  072%=      5-min Rain = 0
KSLS 262310Z 14017G23KT 24/19 A2989 RMK A01 T02430187  RH  073%=      5-min Rain = 0
KSLS 262315Z 13016G22KT 24/19 A2988 RMK A01 T02420188  RH  074%=      5-min Rain = 0
KSLS 262320Z 13016G21KT 24/19 A2988 RMK A01 T02440189  RH  073%=      5-min Rain = 0
KSLS 262325Z 13014G19KT 25/19 A2989 RMK A01 T02480191  RH  072%=      5-min Rain = 0
KSLS 262330Z 14015G21KT 25/19 A299 RMK A01 T02480190  RH  072%=      5-min Rain = 0
KSLS 262335Z 14016KT 25/19 A299 RMK A01 T02450190  RH  073%=      5-min Rain = 0
KSLS 262340Z 14016G22KT 24/19 A299 RMK A01 T02430190  RH  074%=      5-min Rain = 0
KSLS 262345Z 14016G21KT 24/19 A299 RMK A01 T02430190  RH  074%=      5-min Rain = 0
KSLS 262350Z 14016G21KT 25/19 A299 RMK A01 T02450190  RH  073%=      5-min Rain = 0
KSLS 262355Z 14016G22KT 25/19 A2989 RMK A01 T02520191  RH  071%=      5-min Rain = 0
KSLS 270000Z 13015KT 26/19 A2989 RMK A01 T02560191  RH  069%=      5-min Rain = 0
KSLS 270005Z 14017KT 26/19 A2989 RMK A01 T02550190  RH  069%=      5-min Rain = 0
KSLS 270010Z 15018G23KT 25/19 A299 RMK A01 T02530188  RH  069%=      5-min Rain = 0
KSLS 270015Z 15021G27KT 25/19 A299 RMK A01 T02510185  RH  069%=      5-min Rain = 0
KSLS 270020Z 15022G31KT 25/18 A299 RMK A01 T02490182  RH  068%=      5-min Rain = 0
KSLS 270025Z 16023G28KT 25/18 A2989 RMK A01 T02480180  RH  068%=      5-min Rain = 0
KSLS 270030Z 16021G27KT 25/18 A2989 RMK A01 T02460180  RH  068%=      5-min Rain = 0
KSLS 270035Z 16021G27KT 25/18 A2989 RMK A01 T02470180  RH  068%=      5-min Rain = 0
KSLS 270040Z 16023KT 25/18 A2989 RMK A01 T02470179  RH  068%=      5-min Rain = 0
KSLS 270045Z 16022G29KT 25/18 A2989 RMK A01 T02460179  RH  068%=      5-min Rain = 0
KSLS 270050Z 16022KT 25/18 A2989 RMK A01 T02450178  RH  068%=      5-min Rain = 0
KSLS 270055Z 16021G27KT 25/18 A2988 RMK A01 T02450179  RH  068%=      5-min Rain = 0
KSLS 270100Z 16022KT 25/18 A2988 RMK A01 T02460179  RH  068%=      5-min Rain = 0
KSLS 270105Z 16020G26KT 24/18 A2988 RMK A01 T02440178  RH  069%=      5-min Rain = 0
KSLS 270110Z 16018G24KT 24/18 A2988 RMK A01 T02400179  RH  070%=      5-min Rain = 0
KSLS 270115Z 16020KT 24/18 A2987 RMK A01 T02380178  RH  071%=      5-min Rain = 0
KSLS 270120Z 16018KT 24/18 A2987 RMK A01 T02370178  RH  072%=      5-min Rain = 0
KSLS 270125Z 16018G23KT 24/18 A2987 RMK A01 T02350179  RH  072%=      5-min Rain = 0
KSLS 270130Z 16017KT 23/18 A2987 RMK A01 T02340178  RH  073%=      5-min Rain = 0
KSLS 270135Z 15019KT 23/18 A2987 RMK A01 T02320178  RH  073%=      5-min Rain = 0
KSLS 270140Z 15018KT 23/18 A2987 RMK A01 T02320179  RH  074%=      5-min Rain = 0
KSLS 270145Z 15017KT 23/18 A2987 RMK A01 T02310179  RH  074%=      5-min Rain = 0
KSLS 270150Z 16014G19KT 23/18 A2988 RMK A01 T02290179  RH  075%=      5-min Rain = 0
KSLS 270155Z 16015KT 23/18 A2988 RMK A01 T02280179  RH  076%=      5-min Rain = 0
KSLS 270200Z 15015KT 23/18 A2988 RMK A01 T02270179  RH  076%=      5-min Rain = 0
KSLS 270205Z 15015KT 23/18 A2988 RMK A01 T02260179  RH  077%=      5-min Rain = 0
KSLS 270210Z 15015KT 23/18 A2988 RMK A01 T02260179  RH  077%=      5-min Rain = 0
KSLS 270215Z 15014KT 23/18 A2988 RMK A01 T02250179  RH  077%=      5-min Rain = 0
KSLS 270220Z 15013KT 22/18 A2989 RMK A01 T02240179  RH  078%=      5-min Rain = 0
KSLS 270225Z 16012KT 22/18 A2989 RMK A01 T02220179  RH  079%=      5-min Rain = 0
KSLS 270230Z 15013KT 22/18 A2989 RMK A01 T02210179  RH  079%=      5-min Rain = 0
KSLS 270235Z 15012KT 22/18 A2989 RMK A01 T02200179  RH  080%=      5-min Rain = 0
KSLS 270240Z 15013KT 22/18 A2989 RMK A01 T02200179  RH  080%=      5-min Rain = 0
KSLS 270245Z 16012KT 22/18 A2989 RMK A01 T02190179  RH  080%=      5-min Rain = 0
KSLS 270250Z 16011KT 22/18 A299 RMK A01 T02180179  RH  081%=      5-min Rain = 0
KSLS 270255Z 16011KT 22/18 A299 RMK A01 T02170179  RH  081%=      5-min Rain = 0
KSLS 270300Z 16011KT 22/18 A299 RMK A01 T02160179  RH  081%=      5-min Rain = 0
KSLS 270305Z 16012KT 21/18 A299 RMK A01 T02140179  RH  082%=      5-min Rain = 0
KSLS 270310Z 16012KT 21/18 A299 RMK A01 T02140179  RH  082%=      5-min Rain = 0
KSLS 270315Z 16010KT 21/18 A299 RMK A01 T02130179  RH  083%=      5-min Rain = 0
KSLS 270320Z 15010KT 21/18 A299 RMK A01 T02120179  RH  084%=      5-min Rain = 0
KSLS 270325Z 15009KT 21/18 A299 RMK A01 T02110179  RH  084%=      5-min Rain = 0
KSLS 270330Z 15009KT 21/18 A299 RMK A01 T02090178  RH  085%=      5-min Rain = 0
KSLS 270335Z 16010KT 21/18 A299 RMK A01 T02070178  RH  086%=      5-min Rain = 0
KSLS 270340Z 15010KT 21/18 A2989 RMK A01 T02070178  RH  086%=      5-min Rain = 0
KSLS 270345Z 16010KT 21/18 A299 RMK A01 T02060178  RH  086%=      5-min Rain = 0
KSLS 270350Z 15009KT 21/18 A2989 RMK A01 T02060178  RH  086%=      5-min Rain = 0
KSLS 270355Z 15008KT 20/18 A299 RMK A01 T02040178  RH  087%=      5-min Rain = 0
KSLS 270400Z 15010KT 20/18 A2989 RMK A01 T02030177  RH  088%=      5-min Rain = 0
KSLS 270405Z 15011KT 20/18 A2989 RMK A01 T02030178  RH  088%=      5-min Rain = 0
KSLS 270410Z 15011KT 20/18 A2989 RMK A01 T02030178  RH  088%=      5-min Rain = 0
KSLS 270415Z 15010KT 20/18 A2989 RMK A01 T02030178  RH  087%=      5-min Rain = 0
KSLS 270420Z 15009KT 20/18 A2989 RMK A01 T02030177  RH  088%=      5-min Rain = 0
KSLS 270425Z 15008KT 20/18 A2989 RMK A01 T02010177  RH  088%=      5-min Rain = 0
KSLS 270430Z 15008KT 20/18 A2989 RMK A01 T02000176  RH  088%=      5-min Rain = 0
KSLS 270435Z 15009KT 20/18 A2989 RMK A01 T01990176  RH  089%=      5-min Rain = 0
KSLS 270440Z 15009KT 20/18 A2989 RMK A01 T02000177  RH  089%=      5-min Rain = 0
KSLS 270445Z 15009KT 20/18 A2989 RMK A01 T02000176  RH  088%=      5-min Rain = 0
KSLS 270450Z 16007KT 20/18 A2989 RMK A01 T02000176  RH  088%=      5-min Rain = 0
KSLS 270455Z 16007KT 20/18 A2989 RMK A01 T01990175  RH  089%=      5-min Rain = 0

Page generated in 0.0092 seconds.